Norrland — C4KF2 — position and weather

sailwx.info

Track history (hours):
 
Tides and Currents Weather Stations Pressure Air Temp Water Temp Dewpoint Dewpoint Depression Visibility Wind Speed Wind Dir Waves Ship Positions

Norrland

Last reported at 2017-May-12 22:19 UTC. Time now 2017-May-23 17:04 UTC.
Position N 60°38' E 019°07'.
Warning: this ship's position is 10 days out of date.

Length 118 m; draft 7.2 m.

Type: Cargo ship. MMSI: 212521000.

Date/timePositionNaut miles runAvg speedWind from/ knotsBaromVisibWave heightAir tempDewpointWater temp
2017-May-12 22:19N 60°38' E 019°07'3 8.8
2017-May-12 22:00N 60°35' E 019°05'4 8.8
2017-May-12 21:29N 60°31' E 019°03'6 8.9
2017-May-12 20:52N 60°25' E 019°02'4 8.6
2017-May-12 20:26N 60°22' E 019°01'5 8.5
2017-May-12 19:53N 60°17' E 019°02'4 8.7
2017-May-12 19:27N 60°13' E 019°03'4 8.5
2017-May-12 19:00N 60°10' E 019°08'4 8.5
2017-May-12 18:30N 60°07' E 019°13'4 8.4
2017-May-12 18:00N 60°04' E 019°18'4 7.8
2017-May-12 17:30N 60°01' E 019°24'4 7.9
2017-May-12 17:00N 59°58' E 019°28'4 8.2
2017-May-12 16:30N 59°55' E 019°34'4 7.8
2017-May-12 16:00N 59°52' E 019°39'4 7.7
2017-May-12 15:30N 59°49' E 019°44'6 7.6
2017-May-12 14:46N 59°45' E 019°52'3 4.4
2017-May-12 14:04N 59°42' E 019°55'20 6.6
2017-May-12 11:02N 59°23' E 020°01'232 8.1
2017-May-11 06:19N 55°59' E 016°32'411.7
2017-May-11 06:00N 55°57' E 016°26'510.0
2017-May-11 05:30N 55°55' E 016°18'4 8.4
2017-May-11 05:00N 55°53' E 016°12'4 8.3
2017-May-11 04:30N 55°51' E 016°05'4 8.5
2017-May-11 04:00N 55°49' E 015°59'4 8.5
2017-May-11 03:30N 55°47' E 015°52'4 8.4
2017-May-11 03:00N 55°45' E 015°46'4 8.2
2017-May-11 02:30N 55°43' E 015°39'4 8.4
2017-May-11 02:00N 55°41' E 015°33'4 8.5
2017-May-11 01:30N 55°38' E 015°27'4 8.6
2017-May-11 01:00N 55°36' E 015°20'4 8.6
2017-May-11 00:31N 55°34' E 015°13'4 8.6
2017-May-11 00:00N 55°32' E 015°06'4 8.5
2017-May-10 23:30N 55°30' E 014°60'4 8.3
2017-May-10 23:00N 55°28' E 014°53'4 8.2
2017-May-10 22:30N 55°26' E 014°47'4 8.2
2017-May-10 22:00N 55°24' E 014°41'4 8.3
2017-May-10 21:30N 55°21' E 014°36'4 8.5
2017-May-10 21:00N 55°18' E 014°31'4 8.5
2017-May-10 20:30N 55°15' E 014°27'4 8.6
2017-May-10 20:00N 55°11' E 014°22'4 7.3
2017-May-10 19:30N 55°10' E 014°16'4 8.0
2017-May-10 19:00N 55°10' E 014°09'4 7.9
2017-May-10 18:30N 55°10' E 014°02'4 8.3
2017-May-10 18:00N 55°10' E 013°55'4 8.5
2017-May-10 17:30N 55°11' E 013°47'4 8.6
2017-May-10 16:59N 55°11' E 013°39'26 8.4
2017-May-10 13:52N 55°14' E 012°54'5 8.5
2017-May-10 13:14N 55°16' E 012°45'2 8.6
2017-May-10 13:00N 55°17' E 012°42'4 7.5
2017-May-10 12:30N 55°20' E 012°38'5 9.0
2017-May-10 12:00N 55°25' E 012°40'4 9.0
2017-May-10 11:30N 55°29' E 012°41'4 8.5
2017-May-10 11:00N 55°33' E 012°42'4 7.5
2017-May-10 10:30N 55°37' E 012°42'4 7.8
2017-May-10 10:00N 55°41' E 012°41'4 8.1
2017-May-10 09:30N 55°45' E 012°41'5 9.1
2017-May-10 09:00N 55°49' E 012°42'5 9.3
2017-May-10 08:30N 55°54' E 012°39'5 9.2
2017-May-10 08:00N 55°58' E 012°37'5 9.1
2017-May-10 07:30N 56°03' E 012°39'4 8.1
2017-May-10 07:00N 56°06' E 012°34'4 9.0
2017-May-10 06:30N 56°08' E 012°27'5 9.4
2017-May-10 06:00N 56°11' E 012°20'5 9.8
2017-May-10 05:30N 56°14' E 012°13'5 9.6
2017-May-10 05:00N 56°17' E 012°06'59 8.9
2017-May-09 22:23N 57°13' E 011°33'4 9.6
2017-May-09 22:00N 57°16' E 011°31'5 9.8
2017-May-09 21:27N 57°21' E 011°27'510.0
2017-May-09 21:00N 57°25' E 011°24'5 9.6
2017-May-09 20:30N 57°29' E 011°19'5 9.9
2017-May-09 20:00N 57°32' E 011°12'5 9.7
2017-May-09 19:30N 57°36' E 011°06'5 9.5
2017-May-09 19:00N 57°39' E 010°60'5 9.3
2017-May-09 18:30N 57°43' E 010°54'5 9.1
2017-May-09 18:00N 57°46' E 010°48'5 9.5
2017-May-09 17:30N 57°47' E 010°39'510.6
2017-May-09 17:00N 57°47' E 010°29'510.7
2017-May-09 16:30N 57°45' E 010°20'28111.2
2017-May-08 15:18N 54°05' E 005°07'310.6
2017-May-08 14:59N 54°02' E 005°05'510.3
2017-May-08 14:30N 53°57' E 005°02'58 9.3
2017-May-08 08:20N 53°04' E 004°26'3 8.8
2017-May-08 08:00N 53°01' E 004°24'4 8.9
2017-May-08 07:30N 52°57' E 004°20'5 9.3
2017-May-08 07:00N 52°53' E 004°16'5 9.7
2017-May-08 06:30N 52°49' E 004°12'5 9.4
2017-May-08 06:00N 52°45' E 004°09'5 9.7
2017-May-08 05:30N 52°41' E 004°05'4 7.7
2017-May-08 05:00N 52°40' E 003°58'510.3
2017-May-08 04:30N 52°37' E 003°52'510.8
2017-May-08 04:00N 52°32' E 003°46'611.0
2017-May-08 03:30N 52°28' E 003°40'611.3
2017-May-08 03:00N 52°24' E 003°34'611.5
2017-May-08 02:30N 52°20' E 003°27'611.7
2017-May-08 02:00N 52°16' E 003°20'611.9
2017-May-08 01:30N 52°12' E 003°14'612.2
2017-May-08 01:00N 52°07' E 003°07'612.4
2017-May-08 00:30N 52°03' E 002°60'612.3
2017-May-08 00:00N 51°58' E 002°53'612.3
2017-May-07 23:28N 51°54' E 002°46'712.3
2017-May-07 22:55N 51°48' E 002°38'712.1
2017-May-07 22:23N 51°44' E 002°31'1711.6
2017-May-07 20:56N 51°31' E 002°14'511.2
2017-May-07 20:30N 51°27' E 002°09'510.8
2017-May-07 20:00N 51°23' E 002°03'5 9.6
2017-May-07 19:30N 51°20' E 001°58'4 9.0
2017-May-07 19:00N 51°16' E 001°53'4 8.6
2017-May-07 18:30N 51°13' E 001°49'3 7.0
2017-May-07 18:00N 51°10' E 001°45'3 6.9
2017-May-07 17:30N 51°07' E 001°42'3 6.7
2017-May-07 17:00N 51°05' E 001°40'3 6.9
2017-May-07 16:30N 51°02' E 001°37'4 7.3
2017-May-07 16:00N 50°59' E 001°34'4 7.4
2017-May-07 15:30N 50°55' E 001°30'4 7.6
2017-May-07 14:59N 50°52' E 001°28'60 8.8
2017-May-07 08:08N 50°20' E 000°07'3 9.9
2017-May-07 07:49N 50°19' E 000°03'410.2
2017-May-07 07:28N 50°18' W 000°03'510.4
2017-May-07 07:00N 50°17' W 000°10'10710.3
2017-May-06 20:34N 49°48' W 002°52'110.3
2017-May-06 20:30N 49°48' W 002°53'1010.5
2017-May-06 19:33N 49°43' W 003°06'110.8
2017-May-06 19:30N 49°43' W 003°07'9511.4
2017-May-06 11:10N 48°55' W 005°12'411.4
2017-May-06 10:48N 48°53' W 005°17'411.5
2017-May-06 10:30N 48°51' W 005°22'612.1
2017-May-06 10:00N 48°48' W 005°30'40 9.6
2017-May-06 05:53N 48°11' W 005°50'9 9.5
2017-May-06 04:58N 48°04' W 005°41'3211.3
2017-May-06 02:10N 47°36' W 005°21'211.4
2017-May-06 01:58N 47°34' W 005°19'911.6
2017-May-06 01:14N 47°26' W 005°14'224 7.6
2017-May-04 19:49N 43°43' W 005°37'310.0
2017-May-04 19:30N 43°40' W 005°38'510.0
2017-May-04 19:00N 43°35' W 005°40'1 0.1
2017-May-04 12:50N 43°35' W 005°41'0 0.0
2017-May-04 12:26N 43°35' W 005°41'0 0.0
2017-May-04 08:32N 43°35' W 005°41'0 0.0
2017-May-04 08:08N 43°35' W 005°41'0 0.0
2017-May-04 07:14N 43°35' W 005°41'0 0.0
2017-May-04 06:56N 43°35' W 005°41'0 0.0
2017-May-04 06:08N 43°35' W 005°41'0 0.0
2017-May-04 05:44N 43°35' W 005°41'0 0.0
2017-May-04 05:26N 43°35' W 005°41'0 0.0
2017-May-04 04:56N 43°35' W 005°41'0 0.0
2017-May-04 04:26N 43°35' W 005°41'0 0.0
2017-May-04 03:56N 43°35' W 005°41'0 0.0
2017-May-04 03:26N 43°35' W 005°41'0 0.0
2017-May-04 02:56N 43°35' W 005°41'0 0.0
2017-May-04 02:20N 43°35' W 005°41'0 0.0
2017-May-04 01:50N 43°35' W 005°41'0 0.0
2017-May-04 01:26N 43°35' W 005°41'0 0.0
2017-May-04 00:56N 43°35' W 005°41'0 0.0
2017-May-04 00:26N 43°35' W 005°41'0 0.0
2017-May-03 23:56N 43°35' W 005°41'0 0.0
2017-May-03 23:20N 43°35' W 005°41'0 0.0
2017-May-03 19:50N 43°35' W 005°41'0 0.0
2017-May-03 19:20N 43°35' W 005°41'0 0.0
2017-May-03 18:50N 43°35' W 005°41'0 0.0
2017-May-03 18:20N 43°35' W 005°41'0 0.0
2017-May-03 17:50N 43°35' W 005°41'0 0.0
2017-May-03 17:26N 43°35' W 005°41'0 0.0
2017-May-03 16:56N 43°35' W 005°41'0 0.0
2017-May-03 16:26N 43°35' W 005°41'0 0.0
2017-May-03 15:56N 43°35' W 005°41'0 0.0
2017-May-03 15:20N 43°35' W 005°41'0 0.0
2017-May-03 14:50N 43°35' W 005°41'1 1.2
2017-May-03 14:00N 43°36' W 005°40'1 2.2
2017-May-03 13:30N 43°36' W 005°42'0 0.6
2017-May-03 13:00N 43°36' W 005°42'0 0.0
2017-May-03 12:30N 43°36' W 005°42'0 0.0
2017-May-03 11:54N 43°36' W 005°42'0 0.0
2017-May-03 11:30N 43°36' W 005°42'0 0.0
2017-May-03 11:00N 43°36' W 005°42'0 0.0
2017-May-03 10:30N 43°36' W 005°42'0 0.0
2017-May-03 10:00N 43°36' W 005°42'0 0.0
2017-May-03 09:30N 43°36' W 005°42'0 0.0
2017-May-03 09:00N 43°36' W 005°42'0 0.0
2017-May-03 08:30N 43°36' W 005°42'0 0.0
2017-May-03 08:00N 43°36' W 005°42'0 0.0
2017-May-03 07:30N 43°36' W 005°42'0 0.0
2017-May-03 07:00N 43°36' W 005°42'0 0.0
2017-May-03 06:30N 43°36' W 005°42'0 0.1
2017-May-03 05:57N 43°36' W 005°42'0 0.0
2017-May-03 05:25N 43°36' W 005°42'0 0.0
2017-May-03 04:55N 43°36' W 005°42'0 0.1
2017-May-03 04:25N 43°36' W 005°42'0 0.0
2017-May-03 03:55N 43°36' W 005°42'0 0.0
2017-May-03 03:25N 43°36' W 005°42'0 0.1
2017-May-03 02:55N 43°36' W 005°42'0 0.0
2017-May-03 02:25N 43°36' W 005°42'0 0.0
2017-May-03 01:49N 43°36' W 005°42'0 0.0
2017-May-03 01:25N 43°36' W 005°42'0 0.0
2017-May-03 00:55N 43°36' W 005°42'0 0.0
2017-May-03 00:25N 43°36' W 005°42'0 0.0
2017-May-02 23:43N 43°36' W 005°42'  
Track history (hours):
 
Tides and Currents Weather Stations Pressure Air Temp Water Temp Dewpoint Dewpoint Depression Visibility Wind Speed Wind Dir Waves Ship Positions

Norrland

Last reported at 2017-May-12 22:19 UTC. Time now 2017-May-23 17:04 UTC.
Position N 60°38' E 019°07'.
Warning: this ship's position is 10 days out of date.

Length 118 m; draft 7.2 m.

Type: Cargo ship. MMSI: 212521000.

Date/timePositionNaut miles runAvg speedWind from/ knotsBaromVisibWave heightAir tempDewpointWater temp
2017-May-12 22:19N 60°38' E 019°07'3 8.8
2017-May-12 22:00N 60°35' E 019°05'4 8.8
2017-May-12 21:29N 60°31' E 019°03'6 8.9
2017-May-12 20:52N 60°25' E 019°02'4 8.6
2017-May-12 20:26N 60°22' E 019°01'5 8.5
2017-May-12 19:53N 60°17' E 019°02'4 8.7
2017-May-12 19:27N 60°13' E 019°03'4 8.5
2017-May-12 19:00N 60°10' E 019°08'4 8.5
2017-May-12 18:30N 60°07' E 019°13'4 8.4
2017-May-12 18:00N 60°04' E 019°18'4 7.8
2017-May-12 17:30N 60°01' E 019°24'4 7.9
2017-May-12 17:00N 59°58' E 019°28'4 8.2
2017-May-12 16:30N 59°55' E 019°34'4 7.8
2017-May-12 16:00N 59°52' E 019°39'4 7.7
2017-May-12 15:30N 59°49' E 019°44'6 7.6
2017-May-12 14:46N 59°45' E 019°52'3 4.4
2017-May-12 14:04N 59°42' E 019°55'20 6.6
2017-May-12 11:02N 59°23' E 020°01'232 8.1
2017-May-11 06:19N 55°59' E 016°32'411.7
2017-May-11 06:00N 55°57' E 016°26'510.0
2017-May-11 05:30N 55°55' E 016°18'4 8.4
2017-May-11 05:00N 55°53' E 016°12'4 8.3
2017-May-11 04:30N 55°51' E 016°05'4 8.5
2017-May-11 04:00N 55°49' E 015°59'4 8.5
2017-May-11 03:30N 55°47' E 015°52'4 8.4
2017-May-11 03:00N 55°45' E 015°46'4 8.2
2017-May-11 02:30N 55°43' E 015°39'4 8.4
2017-May-11 02:00N 55°41' E 015°33'4 8.5
2017-May-11 01:30N 55°38' E 015°27'4 8.6
2017-May-11 01:00N 55°36' E 015°20'4 8.6
2017-May-11 00:31N 55°34' E 015°13'4 8.6
2017-May-11 00:00N 55°32' E 015°06'4 8.5
2017-May-10 23:30N 55°30' E 014°60'4 8.3
2017-May-10 23:00N 55°28' E 014°53'4 8.2
2017-May-10 22:30N 55°26' E 014°47'4 8.2
2017-May-10 22:00N 55°24' E 014°41'4 8.3
2017-May-10 21:30N 55°21' E 014°36'4 8.5
2017-May-10 21:00N 55°18' E 014°31'4 8.5
2017-May-10 20:30N 55°15' E 014°27'4 8.6
2017-May-10 20:00N 55°11' E 014°22'4 7.3
2017-May-10 19:30N 55°10' E 014°16'4 8.0
2017-May-10 19:00N 55°10' E 014°09'4 7.9
2017-May-10 18:30N 55°10' E 014°02'4 8.3
2017-May-10 18:00N 55°10' E 013°55'4 8.5
2017-May-10 17:30N 55°11' E 013°47'4 8.6
2017-May-10 16:59N 55°11' E 013°39'26 8.4
2017-May-10 13:52N 55°14' E 012°54'5 8.5
2017-May-10 13:14N 55°16' E 012°45'2 8.6
2017-May-10 13:00N 55°17' E 012°42'4 7.5
2017-May-10 12:30N 55°20' E 012°38'5 9.0
2017-May-10 12:00N 55°25' E 012°40'4 9.0
2017-May-10 11:30N 55°29' E 012°41'4 8.5
2017-May-10 11:00N 55°33' E 012°42'4 7.5
2017-May-10 10:30N 55°37' E 012°42'4 7.8
2017-May-10 10:00N 55°41' E 012°41'4 8.1
2017-May-10 09:30N 55°45' E 012°41'5 9.1
2017-May-10 09:00N 55°49' E 012°42'5 9.3
2017-May-10 08:30N 55°54' E 012°39'5 9.2
2017-May-10 08:00N 55°58' E 012°37'5 9.1
2017-May-10 07:30N 56°03' E 012°39'4 8.1
2017-May-10 07:00N 56°06' E 012°34'4 9.0
2017-May-10 06:30N 56°08' E 012°27'5 9.4
2017-May-10 06:00N 56°11' E 012°20'5 9.8
2017-May-10 05:30N 56°14' E 012°13'5 9.6
2017-May-10 05:00N 56°17' E 012°06'59 8.9
2017-May-09 22:23N 57°13' E 011°33'4 9.6
2017-May-09 22:00N 57°16' E 011°31'5 9.8
2017-May-09 21:27N 57°21' E 011°27'510.0
2017-May-09 21:00N 57°25' E 011°24'5 9.6
2017-May-09 20:30N 57°29' E 011°19'5 9.9
2017-May-09 20:00N 57°32' E 011°12'5 9.7
2017-May-09 19:30N 57°36' E 011°06'5 9.5
2017-May-09 19:00N 57°39' E 010°60'5 9.3
2017-May-09 18:30N 57°43' E 010°54'5 9.1
2017-May-09 18:00N 57°46' E 010°48'5 9.5
2017-May-09 17:30N 57°47' E 010°39'510.6
2017-May-09 17:00N 57°47' E 010°29'510.7
2017-May-09 16:30N 57°45' E 010°20'28111.2
2017-May-08 15:18N 54°05' E 005°07'310.6
2017-May-08 14:59N 54°02' E 005°05'510.3
2017-May-08 14:30N 53°57' E 005°02'58 9.3
2017-May-08 08:20N 53°04' E 004°26'3 8.8
2017-May-08 08:00N 53°01' E 004°24'4 8.9
2017-May-08 07:30N 52°57' E 004°20'5 9.3
2017-May-08 07:00N 52°53' E 004°16'5 9.7
2017-May-08 06:30N 52°49' E 004°12'5 9.4
2017-May-08 06:00N 52°45' E 004°09'5 9.7
2017-May-08 05:30N 52°41' E 004°05'4 7.7
2017-May-08 05:00N 52°40' E 003°58'510.3
2017-May-08 04:30N 52°37' E 003°52'510.8
2017-May-08 04:00N 52°32' E 003°46'611.0
2017-May-08 03:30N 52°28' E 003°40'611.3
2017-May-08 03:00N 52°24' E 003°34'611.5
2017-May-08 02:30N 52°20' E 003°27'611.7
2017-May-08 02:00N 52°16' E 003°20'611.9
2017-May-08 01:30N 52°12' E 003°14'612.2
2017-May-08 01:00N 52°07' E 003°07'612.4
2017-May-08 00:30N 52°03' E 002°60'612.3
2017-May-08 00:00N 51°58' E 002°53'612.3
2017-May-07 23:28N 51°54' E 002°46'712.3
2017-May-07 22:55N 51°48' E 002°38'712.1
2017-May-07 22:23N 51°44' E 002°31'1711.6
2017-May-07 20:56N 51°31' E 002°14'511.2
2017-May-07 20:30N 51°27' E 002°09'510.8
2017-May-07 20:00N 51°23' E 002°03'5 9.6
2017-May-07 19:30N 51°20' E 001°58'4 9.0
2017-May-07 19:00N 51°16' E 001°53'4 8.6
2017-May-07 18:30N 51°13' E 001°49'3 7.0
2017-May-07 18:00N 51°10' E 001°45'3 6.9
2017-May-07 17:30N 51°07' E 001°42'3 6.7
2017-May-07 17:00N 51°05' E 001°40'3 6.9
2017-May-07 16:30N 51°02' E 001°37'4 7.3
2017-May-07 16:00N 50°59' E 001°34'4 7.4
2017-May-07 15:30N 50°55' E 001°30'4 7.6
2017-May-07 14:59N 50°52' E 001°28'60 8.8
2017-May-07 08:08N 50°20' E 000°07'3 9.9
2017-May-07 07:49N 50°19' E 000°03'410.2
2017-May-07 07:28N 50°18' W 000°03'510.4
2017-May-07 07:00N 50°17' W 000°10'10710.3
2017-May-06 20:34N 49°48' W 002°52'110.3
2017-May-06 20:30N 49°48' W 002°53'1010.5
2017-May-06 19:33N 49°43' W 003°06'110.8
2017-May-06 19:30N 49°43' W 003°07'9511.4
2017-May-06 11:10N 48°55' W 005°12'411.4
2017-May-06 10:48N 48°53' W 005°17'411.5
2017-May-06 10:30N 48°51' W 005°22'612.1
2017-May-06 10:00N 48°48' W 005°30'40 9.6
2017-May-06 05:53N 48°11' W 005°50'9 9.5
2017-May-06 04:58N 48°04' W 005°41'3211.3
2017-May-06 02:10N 47°36' W 005°21'211.4
2017-May-06 01:58N 47°34' W 005°19'911.6
2017-May-06 01:14N 47°26' W 005°14'224 7.6
2017-May-04 19:49N 43°43' W 005°37'310.0
2017-May-04 19:30N 43°40' W 005°38'510.0
2017-May-04 19:00N 43°35' W 005°40'1 0.1
2017-May-04 12:50N 43°35' W 005°41'0 0.0
2017-May-04 12:26N 43°35' W 005°41'0 0.0
2017-May-04 08:32N 43°35' W 005°41'0 0.0
2017-May-04 08:08N 43°35' W 005°41'0 0.0
2017-May-04 07:14N 43°35' W 005°41'0 0.0
2017-May-04 06:56N 43°35' W 005°41'0 0.0
2017-May-04 06:08N 43°35' W 005°41'0 0.0
2017-May-04 05:44N 43°35' W 005°41'0 0.0
2017-May-04 05:26N 43°35' W 005°41'0 0.0
2017-May-04 04:56N 43°35' W 005°41'0 0.0
2017-May-04 04:26N 43°35' W 005°41'0 0.0
2017-May-04 03:56N 43°35' W 005°41'0 0.0
2017-May-04 03:26N 43°35' W 005°41'0 0.0
2017-May-04 02:56N 43°35' W 005°41'0 0.0
2017-May-04 02:20N 43°35' W 005°41'0 0.0
2017-May-04 01:50N 43°35' W 005°41'0 0.0
2017-May-04 01:26N 43°35' W 005°41'0 0.0
2017-May-04 00:56N 43°35' W 005°41'0 0.0
2017-May-04 00:26N 43°35' W 005°41'0 0.0
2017-May-03 23:56N 43°35' W 005°41'0 0.0
2017-May-03 23:20N 43°35' W 005°41'0 0.0
2017-May-03 19:50N 43°35' W 005°41'0 0.0
2017-May-03 19:20N 43°35' W 005°41'0 0.0
2017-May-03 18:50N 43°35' W 005°41'0 0.0
2017-May-03 18:20N 43°35' W 005°41'0 0.0
2017-May-03 17:50N 43°35' W 005°41'0 0.0
2017-May-03 17:26N 43°35' W 005°41'0 0.0
2017-May-03 16:56N 43°35' W 005°41'0 0.0
2017-May-03 16:26N 43°35' W 005°41'0 0.0
2017-May-03 15:56N 43°35' W 005°41'0 0.0
2017-May-03 15:20N 43°35' W 005°41'0 0.0
2017-May-03 14:50N 43°35' W 005°41'1 1.2
2017-May-03 14:00N 43°36' W 005°40'1 2.2
2017-May-03 13:30N 43°36' W 005°42'0 0.6
2017-May-03 13:00N 43°36' W 005°42'0 0.0
2017-May-03 12:30N 43°36' W 005°42'0 0.0
2017-May-03 11:54N 43°36' W 005°42'0 0.0
2017-May-03 11:30N 43°36' W 005°42'0 0.0
2017-May-03 11:00N 43°36' W 005°42'0 0.0
2017-May-03 10:30N 43°36' W 005°42'0 0.0
2017-May-03 10:00N 43°36' W 005°42'0 0.0
2017-May-03 09:30N 43°36' W 005°42'0 0.0
2017-May-03 09:00N 43°36' W 005°42'0 0.0
2017-May-03 08:30N 43°36' W 005°42'0 0.0
2017-May-03 08:00N 43°36' W 005°42'0 0.0
2017-May-03 07:30N 43°36' W 005°42'0 0.0
2017-May-03 07:00N 43°36' W 005°42'0 0.0
2017-May-03 06:30N 43°36' W 005°42'0 0.1
2017-May-03 05:57N 43°36' W 005°42'0 0.0
2017-May-03 05:25N 43°36' W 005°42'0 0.0
2017-May-03 04:55N 43°36' W 005°42'0 0.1
2017-May-03 04:25N 43°36' W 005°42'0 0.0
2017-May-03 03:55N 43°36' W 005°42'0 0.0
2017-May-03 03:25N 43°36' W 005°42'0 0.1
2017-May-03 02:55N 43°36' W 005°42'0 0.0
2017-May-03 02:25N 43°36' W 005°42'0 0.0
2017-May-03 01:49N 43°36' W 005°42'0 0.0
2017-May-03 01:25N 43°36' W 005°42'0 0.0
2017-May-03 00:55N 43°36' W 005°42'0 0.0
2017-May-03 00:25N 43°36' W 005°42'0 0.0
2017-May-02 23:43N 43°36' W 005°42'  

Dump ship's entire track history